sensor_id;sensor_type;location;lat;lon;timestamp;P1;durP1;ratioP1;P2;durP2;ratioP2
68921;SDS011;55959;51.244;5.724;2023-08-20T00:01:06;8.00;;;6.63;;
68921;SDS011;55959;51.244;5.724;2023-08-20T00:03:34;7.78;;;6.25;;
68921;SDS011;55959;51.244;5.724;2023-08-20T00:06:00;6.80;;;6.20;;
68921;SDS011;55959;51.244;5.724;2023-08-20T00:08:28;8.23;;;7.40;;
68921;SDS011;55959;51.244;5.724;2023-08-20T00:10:54;7.72;;;6.95;;
68921;SDS011;55959;51.244;5.724;2023-08-20T00:13:20;6.57;;;5.97;;
68921;SDS011;55959;51.244;5.724;2023-08-20T00:15:46;6.68;;;5.53;;
68921;SDS011;55959;51.244;5.724;2023-08-20T00:18:12;6.57;;;5.97;;
68921;SDS011;55959;51.244;5.724;2023-08-20T00:20:38;8.10;;;6.10;;
68921;SDS011;55959;51.244;5.724;2023-08-20T00:23:05;11.40;;;10.30;;
68921;SDS011;55959;51.244;5.724;2023-08-20T00:25:31;7.50;;;6.70;;
68921;SDS011;55959;51.244;5.724;2023-08-20T00:27:57;8.00;;;6.63;;
68921;SDS011;55959;51.244;5.724;2023-08-20T00:30:23;7.85;;;6.40;;
68921;SDS011;55959;51.244;5.724;2023-08-20T00:32:49;6.80;;;5.80;;
68921;SDS011;55959;51.244;5.724;2023-08-20T00:35:15;7.10;;;6.35;;
68921;SDS011;55959;51.244;5.724;2023-08-20T00:37:41;5.65;;;5.10;;
68921;SDS011;55959;51.244;5.724;2023-08-20T00:40:06;6.32;;;5.53;;
68921;SDS011;55959;51.244;5.724;2023-08-20T00:42:34;6.57;;;5.68;;
68921;SDS011;55959;51.244;5.724;2023-08-20T00:45:00;5.57;;;5.07;;
68921;SDS011;55959;51.244;5.724;2023-08-20T00:47:26;5.28;;;4.75;;
68921;SDS011;55959;51.244;5.724;2023-08-20T00:49:53;6.15;;;5.53;;
68921;SDS011;55959;51.244;5.724;2023-08-20T00:52:19;6.20;;;5.57;;
68921;SDS011;55959;51.244;5.724;2023-08-20T00:54:47;6.90;;;5.43;;
68921;SDS011;55959;51.244;5.724;2023-08-20T00:57:13;5.47;;;4.97;;
68921;SDS011;55959;51.244;5.724;2023-08-20T00:59:40;6.63;;;5.07;;
68921;SDS011;55959;51.244;5.724;2023-08-20T01:02:06;6.97;;;6.28;;
68921;SDS011;55959;51.244;5.724;2023-08-20T01:04:32;6.25;;;5.20;;
68921;SDS011;55959;51.244;5.724;2023-08-20T01:07:17;5.65;;;4.97;;
68921;SDS011;55959;51.244;5.724;2023-08-20T01:12:35;5.30;;;4.80;;
68921;SDS011;55959;51.244;5.724;2023-08-20T01:15:02;8.52;;;7.30;;
68921;SDS011;55959;51.244;5.724;2023-08-20T01:17:28;6.93;;;5.40;;
68921;SDS011;55959;51.244;5.724;2023-08-20T01:19:54;5.75;;;5.15;;
68921;SDS011;55959;51.244;5.724;2023-08-20T01:25:30;8.23;;;6.95;;
68921;SDS011;55959;51.244;5.724;2023-08-20T01:30:55;8.32;;;7.63;;
68921;SDS011;55959;51.244;5.724;2023-08-20T01:33:23;8.73;;;7.88;;
68921;SDS011;55959;51.244;5.724;2023-08-20T01:35:53;7.88;;;7.07;;
68921;SDS011;55959;51.244;5.724;2023-08-20T01:38:20;7.03;;;6.32;;
68921;SDS011;55959;51.244;5.724;2023-08-20T01:40:47;6.95;;;6.05;;
68921;SDS011;55959;51.244;5.724;2023-08-20T01:43:13;4.90;;;4.50;;
68921;SDS011;55959;51.244;5.724;2023-08-20T01:45:40;6.88;;;4.95;;
68921;SDS011;55959;51.244;5.724;2023-08-20T01:48:06;4.90;;;4.07;;
68921;SDS011;55959;51.244;5.724;2023-08-20T01:50:33;4.82;;;4.32;;
68921;SDS011;55959;51.244;5.724;2023-08-20T01:53:00;5.05;;;3.95;;
68921;SDS011;55959;51.244;5.724;2023-08-20T01:55:27;4.60;;;4.20;;
68921;SDS011;55959;51.244;5.724;2023-08-20T01:57:53;5.47;;;4.35;;
68921;SDS011;55959;51.244;5.724;2023-08-20T02:00:19;6.63;;;4.50;;
68921;SDS011;55959;51.244;5.724;2023-08-20T02:02:45;5.50;;;4.63;;
68921;SDS011;55959;51.244;5.724;2023-08-20T02:05:11;6.35;;;4.03;;
68921;SDS011;55959;51.244;5.724;2023-08-20T02:07:36;4.70;;;3.60;;
68921;SDS011;55959;51.244;5.724;2023-08-20T02:10:02;4.68;;;4.00;;
68921;SDS011;55959;51.244;5.724;2023-08-20T02:12:28;5.20;;;4.28;;
68921;SDS011;55959;51.244;5.724;2023-08-20T02:14:54;5.38;;;4.30;;
68921;SDS011;55959;51.244;5.724;2023-08-20T02:17:20;5.30;;;4.03;;
68921;SDS011;55959;51.244;5.724;2023-08-20T02:19:46;4.47;;;4.07;;
68921;SDS011;55959;51.244;5.724;2023-08-20T02:22:12;5.07;;;3.90;;
68921;SDS011;55959;51.244;5.724;2023-08-20T02:24:37;4.20;;;3.80;;
68921;SDS011;55959;51.244;5.724;2023-08-20T02:27:03;5.75;;;4.03;;
68921;SDS011;55959;51.244;5.724;2023-08-20T02:29:29;5.43;;;4.07;;
68921;SDS011;55959;51.244;5.724;2023-08-20T02:31:55;5.22;;;4.13;;
68921;SDS011;55959;51.244;5.724;2023-08-20T02:34:20;5.80;;;4.22;;
68921;SDS011;55959;51.244;5.724;2023-08-20T02:36:47;5.00;;;4.47;;
68921;SDS011;55959;51.244;5.724;2023-08-20T02:39:13;5.13;;;4.63;;
68921;SDS011;55959;51.244;5.724;2023-08-20T02:41:39;5.07;;;4.40;;
68921;SDS011;55959;51.244;5.724;2023-08-20T02:44:07;5.82;;;4.43;;
68921;SDS011;55959;51.244;5.724;2023-08-20T02:46:33;6.20;;;4.80;;
68921;SDS011;55959;51.244;5.724;2023-08-20T02:48:58;7.00;;;4.68;;
68921;SDS011;55959;51.244;5.724;2023-08-20T02:51:24;5.53;;;3.92;;
68921;SDS011;55959;51.244;5.724;2023-08-20T02:53:50;4.63;;;4.13;;
68921;SDS011;55959;51.244;5.724;2023-08-20T02:56:16;5.10;;;4.20;;
68921;SDS011;55959;51.244;5.724;2023-08-20T02:58:41;5.40;;;4.60;;
68921;SDS011;55959;51.244;5.724;2023-08-20T03:01:12;4.88;;;4.40;;
68921;SDS011;55959;51.244;5.724;2023-08-20T03:03:51;5.80;;;4.40;;
68921;SDS011;55959;51.244;5.724;2023-08-20T03:06:17;4.57;;;3.80;;
68921;SDS011;55959;51.244;5.724;2023-08-20T03:08:42;5.00;;;4.25;;
68921;SDS011;55959;51.244;5.724;2023-08-20T03:11:08;4.32;;;3.92;;
68921;SDS011;55959;51.244;5.724;2023-08-20T03:13:34;4.53;;;3.75;;
68921;SDS011;55959;51.244;5.724;2023-08-20T03:16:00;5.40;;;4.22;;
68921;SDS011;55959;51.244;5.724;2023-08-20T03:18:26;5.43;;;4.03;;
68921;SDS011;55959;51.244;5.724;2023-08-20T03:20:53;5.22;;;3.90;;
68921;SDS011;55959;51.244;5.724;2023-08-20T03:23:21;5.75;;;4.43;;
68921;SDS011;55959;51.244;5.724;2023-08-20T03:25:47;5.80;;;4.00;;
68921;SDS011;55959;51.244;5.724;2023-08-20T03:28:13;5.28;;;4.60;;
68921;SDS011;55959;51.244;5.724;2023-08-20T03:30:38;5.57;;;4.32;;
68921;SDS011;55959;51.244;5.724;2023-08-20T03:33:04;5.43;;;4.60;;
68921;SDS011;55959;51.244;5.724;2023-08-20T03:35:30;5.68;;;4.18;;
68921;SDS011;55959;51.244;5.724;2023-08-20T03:37:55;5.10;;;4.60;;
68921;SDS011;55959;51.244;5.724;2023-08-20T03:40:22;4.63;;;4.13;;
68921;SDS011;55959;51.244;5.724;2023-08-20T03:42:47;5.95;;;4.38;;
68921;SDS011;55959;51.244;5.724;2023-08-20T03:45:13;5.22;;;4.72;;
68921;SDS011;55959;51.244;5.724;2023-08-20T03:47:39;4.32;;;3.85;;
68921;SDS011;55959;51.244;5.724;2023-08-20T03:50:08;5.10;;;4.60;;
68921;SDS011;55959;51.244;5.724;2023-08-20T03:52:34;6.13;;;4.45;;
68921;SDS011;55959;51.244;5.724;2023-08-20T03:54:59;5.97;;;4.85;;
68921;SDS011;55959;51.244;5.724;2023-08-20T03:57:25;5.65;;;4.47;;
68921;SDS011;55959;51.244;5.724;2023-08-20T03:59:51;5.25;;;4.45;;
68921;SDS011;55959;51.244;5.724;2023-08-20T04:02:17;4.38;;;3.95;;
68921;SDS011;55959;51.244;5.724;2023-08-20T04:04:42;4.78;;;4.15;;
68921;SDS011;55959;51.244;5.724;2023-08-20T04:07:08;6.65;;;4.47;;
68921;SDS011;55959;51.244;5.724;2023-08-20T04:09:34;4.60;;;3.63;;
68921;SDS011;55959;51.244;5.724;2023-08-20T04:12:01;4.78;;;4.35;;
68921;SDS011;55959;51.244;5.724;2023-08-20T04:14:28;5.47;;;4.28;;
68921;SDS011;55959;51.244;5.724;2023-08-20T04:16:54;5.43;;;4.25;;
68921;SDS011;55959;51.244;5.724;2023-08-20T04:19:19;5.32;;;4.50;;
68921;SDS011;55959;51.244;5.724;2023-08-20T04:21:45;6.15;;;4.88;;
68921;SDS011;55959;51.244;5.724;2023-08-20T04:24:11;5.22;;;4.70;;
68921;SDS011;55959;51.244;5.724;2023-08-20T04:26:37;4.82;;;3.97;;
68921;SDS011;55959;51.244;5.724;2023-08-20T04:29:03;4.70;;;4.25;;
68921;SDS011;55959;51.244;5.724;2023-08-20T04:31:29;5.10;;;4.45;;
68921;SDS011;55959;51.244;5.724;2023-08-20T04:33:55;4.90;;;4.40;;
68921;SDS011;55959;51.244;5.724;2023-08-20T04:36:21;4.97;;;4.10;;
68921;SDS011;55959;51.244;5.724;2023-08-20T04:38:46;4.68;;;4.28;;
68921;SDS011;55959;51.244;5.724;2023-08-20T04:41:12;5.68;;;4.38;;
68921;SDS011;55959;51.244;5.724;2023-08-20T04:43:38;4.82;;;4.43;;
68921;SDS011;55959;51.244;5.724;2023-08-20T04:46:04;4.47;;;3.80;;
68921;SDS011;55959;51.244;5.724;2023-08-20T04:48:30;4.40;;;3.97;;
68921;SDS011;55959;51.244;5.724;2023-08-20T04:50:56;4.50;;;4.10;;
68921;SDS011;55959;51.244;5.724;2023-08-20T04:53:22;5.03;;;4.57;;
68921;SDS011;55959;51.244;5.724;2023-08-20T04:55:47;5.63;;;4.90;;
68921;SDS011;55959;51.244;5.724;2023-08-20T04:58:13;5.85;;;4.63;;
68921;SDS011;55959;51.244;5.724;2023-08-20T05:00:39;6.40;;;3.70;;
68921;SDS011;55959;51.244;5.724;2023-08-20T05:03:04;5.85;;;4.25;;
68921;SDS011;55959;51.244;5.724;2023-08-20T05:05:30;5.13;;;4.65;;
68921;SDS011;55959;51.244;5.724;2023-08-20T05:07:56;4.88;;;4.47;;
68921;SDS011;55959;51.244;5.724;2023-08-20T05:10:21;4.80;;;4.30;;
68921;SDS011;55959;51.244;5.724;2023-08-20T05:12:47;5.50;;;4.40;;
68921;SDS011;55959;51.244;5.724;2023-08-20T05:15:13;5.07;;;4.57;;
68921;SDS011;55959;51.244;5.724;2023-08-20T05:17:39;5.03;;;4.53;;
68921;SDS011;55959;51.244;5.724;2023-08-20T05:20:05;5.22;;;4.45;;
68921;SDS011;55959;51.244;5.724;2023-08-20T05:22:31;4.68;;;4.28;;
68921;SDS011;55959;51.244;5.724;2023-08-20T05:24:57;5.55;;;3.97;;
68921;SDS011;55959;51.244;5.724;2023-08-20T05:27:23;5.65;;;4.13;;
68921;SDS011;55959;51.244;5.724;2023-08-20T05:29:49;3.97;;;3.58;;
68921;SDS011;55959;51.244;5.724;2023-08-20T05:32:15;5.68;;;4.13;;
68921;SDS011;55959;51.244;5.724;2023-08-20T05:34:41;4.50;;;4.10;;
68921;SDS011;55959;51.244;5.724;2023-08-20T05:37:07;4.90;;;4.15;;
68921;SDS011;55959;51.244;5.724;2023-08-20T05:39:51;4.78;;;4.07;;
68921;SDS011;55959;51.244;5.724;2023-08-20T05:42:17;4.43;;;4.03;;
68921;SDS011;55959;51.244;5.724;2023-08-20T05:44:43;5.10;;;4.50;;
68921;SDS011;55959;51.244;5.724;2023-08-20T05:47:09;4.82;;;3.90;;
68921;SDS011;55959;51.244;5.724;2023-08-20T05:49:34;4.57;;;3.83;;
68921;SDS011;55959;51.244;5.724;2023-08-20T05:52:01;4.30;;;3.90;;
68921;SDS011;55959;51.244;5.724;2023-08-20T05:54:27;5.55;;;4.40;;
68921;SDS011;55959;51.244;5.724;2023-08-20T05:56:53;7.13;;;4.35;;
68921;SDS011;55959;51.244;5.724;2023-08-20T05:59:19;6.35;;;4.95;;
68921;SDS011;55959;51.244;5.724;2023-08-20T06:01:44;4.85;;;4.38;;
68921;SDS011;55959;51.244;5.724;2023-08-20T06:04:10;6.30;;;4.60;;
68921;SDS011;55959;51.244;5.724;2023-08-20T06:06:36;9.43;;;5.20;;
68921;SDS011;55959;51.244;5.724;2023-08-20T06:09:02;6.15;;;4.57;;
68921;SDS011;55959;51.244;5.724;2023-08-20T06:11:28;5.93;;;5.03;;
68921;SDS011;55959;51.244;5.724;2023-08-20T06:13:53;5.10;;;4.60;;
68921;SDS011;55959;51.244;5.724;2023-08-20T06:16:19;6.65;;;5.47;;
68921;SDS011;55959;51.244;5.724;2023-08-20T06:18:45;5.75;;;4.88;;
68921;SDS011;55959;51.244;5.724;2023-08-20T06:21:11;6.25;;;5.30;;
68921;SDS011;55959;51.244;5.724;2023-08-20T06:23:39;5.55;;;4.95;;
68921;SDS011;55959;51.244;5.724;2023-08-20T06:26:04;5.95;;;5.18;;
68921;SDS011;55959;51.244;5.724;2023-08-20T06:28:30;7.80;;;5.07;;
68921;SDS011;55959;51.244;5.724;2023-08-20T06:30:56;5.35;;;4.35;;
68921;SDS011;55959;51.244;5.724;2023-08-20T06:33:22;5.18;;;4.65;;
68921;SDS011;55959;51.244;5.724;2023-08-20T06:35:47;6.75;;;4.35;;
68921;SDS011;55959;51.244;5.724;2023-08-20T06:38:13;6.00;;;3.83;;
68921;SDS011;55959;51.244;5.724;2023-08-20T06:40:39;4.38;;;3.85;;
68921;SDS011;55959;51.244;5.724;2023-08-20T06:43:05;4.53;;;4.13;;
68921;SDS011;55959;51.244;5.724;2023-08-20T06:45:30;4.43;;;3.10;;
68921;SDS011;55959;51.244;5.724;2023-08-20T06:47:56;5.85;;;4.05;;
68921;SDS011;55959;51.244;5.724;2023-08-20T06:50:23;6.25;;;5.07;;
68921;SDS011;55959;51.244;5.724;2023-08-20T06:52:48;5.22;;;3.90;;
68921;SDS011;55959;51.244;5.724;2023-08-20T06:55:15;6.07;;;4.47;;
68921;SDS011;55959;51.244;5.724;2023-08-20T06:57:41;6.32;;;3.83;;
68921;SDS011;55959;51.244;5.724;2023-08-20T07:00:07;5.32;;;4.30;;
68921;SDS011;55959;51.244;5.724;2023-08-20T07:02:33;5.95;;;4.10;;
68921;SDS011;55959;51.244;5.724;2023-08-20T07:04:58;4.45;;;4.05;;
68921;SDS011;55959;51.244;5.724;2023-08-20T07:07:24;6.07;;;4.95;;
68921;SDS011;55959;51.244;5.724;2023-08-20T07:09:50;5.60;;;4.10;;
68921;SDS011;55959;51.244;5.724;2023-08-20T07:12:16;4.93;;;4.32;;
68921;SDS011;55959;51.244;5.724;2023-08-20T07:14:41;6.45;;;4.80;;
68921;SDS011;55959;51.244;5.724;2023-08-20T07:17:07;6.43;;;4.40;;
68921;SDS011;55959;51.244;5.724;2023-08-20T07:19:33;5.60;;;4.30;;
68921;SDS011;55959;51.244;5.724;2023-08-20T07:21:58;4.50;;;3.88;;
68921;SDS011;55959;51.244;5.724;2023-08-20T07:24:24;5.07;;;4.20;;
68921;SDS011;55959;51.244;5.724;2023-08-20T07:26:53;6.10;;;4.15;;
68921;SDS011;55959;51.244;5.724;2023-08-20T07:29:24;3.85;;;3.30;;
68921;SDS011;55959;51.244;5.724;2023-08-20T07:31:51;7.47;;;4.00;;
68921;SDS011;55959;51.244;5.724;2023-08-20T07:34:17;4.88;;;3.58;;
68921;SDS011;55959;51.244;5.724;2023-08-20T07:36:44;5.10;;;3.30;;
68921;SDS011;55959;51.244;5.724;2023-08-20T07:39:09;4.60;;;3.65;;
68921;SDS011;55959;51.244;5.724;2023-08-20T07:41:35;10.05;;;7.20;;
68921;SDS011;55959;51.244;5.724;2023-08-20T07:44:01;5.53;;;3.60;;
68921;SDS011;55959;51.244;5.724;2023-08-20T07:46:26;5.40;;;3.17;;
68921;SDS011;55959;51.244;5.724;2023-08-20T07:48:52;11.50;;;8.90;;
68921;SDS011;55959;51.244;5.724;2023-08-20T07:51:18;37.33;;;28.17;;
68921;SDS011;55959;51.244;5.724;2023-08-20T07:53:44;49.78;;;43.40;;
68921;SDS011;55959;51.244;5.724;2023-08-20T07:56:10;23.30;;;21.05;;
68921;SDS011;55959;51.244;5.724;2023-08-20T07:58:35;11.68;;;9.95;;
68921;SDS011;55959;51.244;5.724;2023-08-20T08:01:01;8.05;;;6.35;;
68921;SDS011;55959;51.244;5.724;2023-08-20T08:03:27;7.53;;;4.13;;
68921;SDS011;55959;51.244;5.724;2023-08-20T08:05:53;6.65;;;4.10;;
68921;SDS011;55959;51.244;5.724;2023-08-20T08:08:20;5.60;;;4.50;;
68921;SDS011;55959;51.244;5.724;2023-08-20T08:10:47;6.00;;;4.50;;
68921;SDS011;55959;51.244;5.724;2023-08-20T08:13:13;3.80;;;3.25;;
68921;SDS011;55959;51.244;5.724;2023-08-20T08:15:41;4.68;;;3.38;;
68921;SDS011;55959;51.244;5.724;2023-08-20T08:18:08;4.07;;;3.47;;
68921;SDS011;55959;51.244;5.724;2023-08-20T08:20:34;5.90;;;3.38;;
68921;SDS011;55959;51.244;5.724;2023-08-20T08:23:00;4.70;;;2.95;;
68921;SDS011;55959;51.244;5.724;2023-08-20T08:25:26;4.10;;;2.75;;
68921;SDS011;55959;51.244;5.724;2023-08-20T08:27:53;5.63;;;2.97;;
68921;SDS011;55959;51.244;5.724;2023-08-20T08:30:22;8.70;;;3.53;;
68921;SDS011;55959;51.244;5.724;2023-08-20T08:32:48;3.30;;;2.40;;
68921;SDS011;55959;51.244;5.724;2023-08-20T08:35:13;6.35;;;3.53;;
68921;SDS011;55959;51.244;5.724;2023-08-20T08:37:39;4.13;;;2.75;;
68921;SDS011;55959;51.244;5.724;2023-08-20T08:40:05;7.05;;;4.22;;
68921;SDS011;55959;51.244;5.724;2023-08-20T08:42:32;5.43;;;3.60;;
68921;SDS011;55959;51.244;5.724;2023-08-20T08:45:01;5.25;;;3.55;;
68921;SDS011;55959;51.244;5.724;2023-08-20T08:47:29;6.03;;;4.30;;
68921;SDS011;55959;51.244;5.724;2023-08-20T08:49:55;4.78;;;3.28;;
68921;SDS011;55959;51.244;5.724;2023-08-20T08:52:24;5.43;;;3.50;;
68921;SDS011;55959;51.244;5.724;2023-08-20T08:54:51;4.20;;;3.38;;
68921;SDS011;55959;51.244;5.724;2023-08-20T08:57:18;6.70;;;3.70;;
68921;SDS011;55959;51.244;5.724;2023-08-20T08:59:44;6.72;;;4.30;;
68921;SDS011;55959;51.244;5.724;2023-08-20T09:02:10;6.45;;;3.90;;
68921;SDS011;55959;51.244;5.724;2023-08-20T09:04:38;5.40;;;3.13;;
68921;SDS011;55959;51.244;5.724;2023-08-20T09:07:05;5.93;;;3.40;;
68921;SDS011;55959;51.244;5.724;2023-08-20T09:09:36;4.60;;;3.05;;
68921;SDS011;55959;51.244;5.724;2023-08-20T09:12:12;6.07;;;4.15;;
68921;SDS011;55959;51.244;5.724;2023-08-20T09:14:47;6.25;;;4.07;;
68921;SDS011;55959;51.244;5.724;2023-08-20T09:17:15;4.85;;;3.38;;
68921;SDS011;55959;51.244;5.724;2023-08-20T09:19:43;5.97;;;2.97;;
68921;SDS011;55959;51.244;5.724;2023-08-20T09:22:13;4.88;;;3.03;;
68921;SDS011;55959;51.244;5.724;2023-08-20T09:24:41;5.05;;;2.63;;
68921;SDS011;55959;51.244;5.724;2023-08-20T09:27:14;5.22;;;3.60;;
68921;SDS011;55959;51.244;5.724;2023-08-20T09:29:46;5.30;;;2.58;;
68921;SDS011;55959;51.244;5.724;2023-08-20T09:32:19;6.15;;;3.38;;
68921;SDS011;55959;51.244;5.724;2023-08-20T09:34:50;4.90;;;2.88;;
68921;SDS011;55959;51.244;5.724;2023-08-20T09:37:20;4.22;;;2.40;;
68921;SDS011;55959;51.244;5.724;2023-08-20T09:39:47;3.65;;;2.38;;
68921;SDS011;55959;51.244;5.724;2023-08-20T09:42:14;6.05;;;3.13;;
68921;SDS011;55959;51.244;5.724;2023-08-20T09:44:44;4.75;;;2.50;;
68921;SDS011;55959;51.244;5.724;2023-08-20T09:47:11;4.15;;;2.30;;
68921;SDS011;55959;51.244;5.724;2023-08-20T09:49:43;3.83;;;2.33;;
68921;SDS011;55959;51.244;5.724;2023-08-20T09:52:11;5.45;;;2.88;;
68921;SDS011;55959;51.244;5.724;2023-08-20T09:54:59;4.45;;;2.72;;
68921;SDS011;55959;51.244;5.724;2023-08-20T09:57:41;3.03;;;2.13;;
68921;SDS011;55959;51.244;5.724;2023-08-20T10:00:08;4.18;;;2.03;;
68921;SDS011;55959;51.244;5.724;2023-08-20T10:02:35;4.07;;;2.72;;
68921;SDS011;55959;51.244;5.724;2023-08-20T10:05:05;4.15;;;2.30;;
68921;SDS011;55959;51.244;5.724;2023-08-20T10:07:33;2.60;;;2.03;;
68921;SDS011;55959;51.244;5.724;2023-08-20T10:10:03;5.47;;;2.53;;
68921;SDS011;55959;51.244;5.724;2023-08-20T10:12:32;3.50;;;2.60;;
68921;SDS011;55959;51.244;5.724;2023-08-20T10:14:59;4.13;;;2.17;;
68921;SDS011;55959;51.244;5.724;2023-08-20T10:17:25;3.80;;;2.17;;
68921;SDS011;55959;51.244;5.724;2023-08-20T10:19:55;3.88;;;2.15;;
68921;SDS011;55959;51.244;5.724;2023-08-20T10:22:31;4.18;;;2.40;;
68921;SDS011;55959;51.244;5.724;2023-08-20T10:25:03;2.60;;;1.77;;
68921;SDS011;55959;51.244;5.724;2023-08-20T10:27:32;3.03;;;2.25;;
68921;SDS011;55959;51.244;5.724;2023-08-20T10:30:01;3.67;;;2.00;;
68921;SDS011;55959;51.244;5.724;2023-08-20T10:32:51;3.30;;;1.88;;
68921;SDS011;55959;51.244;5.724;2023-08-20T10:35:18;3.45;;;1.67;;
68921;SDS011;55959;51.244;5.724;2023-08-20T10:38:00;3.85;;;1.70;;
68921;SDS011;55959;51.244;5.724;2023-08-20T10:43:30;5.20;;;2.45;;
68921;SDS011;55959;51.244;5.724;2023-08-20T10:48:47;4.68;;;2.08;;
68921;SDS011;55959;51.244;5.724;2023-08-20T11:01:58;2.63;;;1.27;;
68921;SDS011;55959;51.244;5.724;2023-08-20T11:04:28;3.00;;;1.52;;
68921;SDS011;55959;51.244;5.724;2023-08-20T11:06:59;2.75;;;1.50;;
68921;SDS011;55959;51.244;5.724;2023-08-20T11:09:26;4.00;;;1.67;;
68921;SDS011;55959;51.244;5.724;2023-08-20T11:11:54;2.35;;;1.40;;
68921;SDS011;55959;51.244;5.724;2023-08-20T11:14:20;2.25;;;1.50;;
68921;SDS011;55959;51.244;5.724;2023-08-20T11:16:47;4.30;;;1.90;;
68921;SDS011;55959;51.244;5.724;2023-08-20T11:19:14;3.75;;;1.33;;
68921;SDS011;55959;51.244;5.724;2023-08-20T11:21:44;2.28;;;1.20;;
68921;SDS011;55959;51.244;5.724;2023-08-20T11:24:11;2.55;;;1.08;;
68921;SDS011;55959;51.244;5.724;2023-08-20T11:26:40;3.72;;;1.50;;
68921;SDS011;55959;51.244;5.724;2023-08-20T11:29:12;2.65;;;1.30;;
68921;SDS011;55959;51.244;5.724;2023-08-20T11:31:44;2.38;;;1.30;;
68921;SDS011;55959;51.244;5.724;2023-08-20T11:34:11;2.08;;;1.27;;
68921;SDS011;55959;51.244;5.724;2023-08-20T11:36:38;3.22;;;1.38;;
68921;SDS011;55959;51.244;5.724;2023-08-20T11:39:04;3.15;;;1.60;;
68921;SDS011;55959;51.244;5.724;2023-08-20T11:41:33;3.58;;;1.60;;
68921;SDS011;55959;51.244;5.724;2023-08-20T11:44:02;3.60;;;1.48;;
68921;SDS011;55959;51.244;5.724;2023-08-20T11:46:28;3.38;;;1.40;;
68921;SDS011;55959;51.244;5.724;2023-08-20T11:49:07;3.55;;;1.70;;
68921;SDS011;55959;51.244;5.724;2023-08-20T11:54:13;2.05;;;1.10;;
68921;SDS011;55959;51.244;5.724;2023-08-20T11:56:46;2.55;;;1.10;;
68921;SDS011;55959;51.244;5.724;2023-08-20T11:59:15;2.38;;;1.25;;
68921;SDS011;55959;51.244;5.724;2023-08-20T12:01:49;2.40;;;1.35;;
68921;SDS011;55959;51.244;5.724;2023-08-20T12:04:26;2.15;;;1.10;;
68921;SDS011;55959;51.244;5.724;2023-08-20T12:09:40;3.17;;;1.50;;
68921;SDS011;55959;51.244;5.724;2023-08-20T12:12:07;3.10;;;1.40;;
68921;SDS011;55959;51.244;5.724;2023-08-20T12:14:34;1.58;;;1.33;;
68921;SDS011;55959;51.244;5.724;2023-08-20T12:17:01;1.65;;;1.25;;
68921;SDS011;55959;51.244;5.724;2023-08-20T12:19:28;2.38;;;1.30;;
68921;SDS011;55959;51.244;5.724;2023-08-20T12:21:54;2.47;;;1.48;;
68921;SDS011;55959;51.244;5.724;2023-08-20T12:24:20;2.33;;;1.05;;
68921;SDS011;55959;51.244;5.724;2023-08-20T12:26:46;2.58;;;1.40;;
68921;SDS011;55959;51.244;5.724;2023-08-20T12:29:12;2.75;;;1.25;;
68921;SDS011;55959;51.244;5.724;2023-08-20T12:31:38;3.13;;;1.52;;
68921;SDS011;55959;51.244;5.724;2023-08-20T12:34:05;2.30;;;1.40;;
68921;SDS011;55959;51.244;5.724;2023-08-20T12:36:31;2.45;;;1.35;;
68921;SDS011;55959;51.244;5.724;2023-08-20T12:38:56;2.53;;;1.30;;
68921;SDS011;55959;51.244;5.724;2023-08-20T12:41:22;2.75;;;1.40;;
68921;SDS011;55959;51.244;5.724;2023-08-20T12:43:48;2.28;;;1.10;;
68921;SDS011;55959;51.244;5.724;2023-08-20T12:46:14;1.63;;;1.20;;
68921;SDS011;55959;51.244;5.724;2023-08-20T12:48:40;1.77;;;1.17;;
68921;SDS011;55959;51.244;5.724;2023-08-20T12:51:05;1.45;;;1.10;;
68921;SDS011;55959;51.244;5.724;2023-08-20T12:53:32;1.63;;;1.00;;
68921;SDS011;55959;51.244;5.724;2023-08-20T12:55:58;4.57;;;1.90;;
68921;SDS011;55959;51.244;5.724;2023-08-20T12:58:23;1.85;;;1.30;;
68921;SDS011;55959;51.244;5.724;2023-08-20T13:00:50;2.13;;;1.05;;
68921;SDS011;55959;51.244;5.724;2023-08-20T13:03:16;1.92;;;1.33;;
68921;SDS011;55959;51.244;5.724;2023-08-20T13:05:43;1.98;;;1.20;;
68921;SDS011;55959;51.244;5.724;2023-08-20T13:08:10;3.80;;;1.55;;
68921;SDS011;55959;51.244;5.724;2023-08-20T13:10:38;2.47;;;1.20;;
68921;SDS011;55959;51.244;5.724;2023-08-20T13:13:05;1.48;;;1.02;;
68921;SDS011;55959;51.244;5.724;2023-08-20T13:15:35;2.95;;;1.08;;
68921;SDS011;55959;51.244;5.724;2023-08-20T13:18:01;2.88;;;0.90;;
68921;SDS011;55959;51.244;5.724;2023-08-20T13:20:28;2.40;;;1.25;;
68921;SDS011;55959;51.244;5.724;2023-08-20T13:22:55;2.08;;;1.10;;
68921;SDS011;55959;51.244;5.724;2023-08-20T13:25:21;3.50;;;1.30;;
68921;SDS011;55959;51.244;5.724;2023-08-20T13:27:48;2.28;;;1.20;;
68921;SDS011;55959;51.244;5.724;2023-08-20T13:30:14;3.70;;;1.45;;
68921;SDS011;55959;51.244;5.724;2023-08-20T13:32:40;3.95;;;1.40;;
68921;SDS011;55959;51.244;5.724;2023-08-20T13:35:06;2.85;;;1.08;;
68921;SDS011;55959;51.244;5.724;2023-08-20T13:37:35;2.88;;;1.20;;
68921;SDS011;55959;51.244;5.724;2023-08-20T13:40:01;2.47;;;1.40;;
68921;SDS011;55959;51.244;5.724;2023-08-20T13:42:29;2.20;;;1.40;;
68921;SDS011;55959;51.244;5.724;2023-08-20T13:44:54;1.50;;;1.13;;
68921;SDS011;55959;51.244;5.724;2023-08-20T13:47:20;3.00;;;1.20;;
68921;SDS011;55959;51.244;5.724;2023-08-20T13:49:46;2.35;;;1.52;;
68921;SDS011;55959;51.244;5.724;2023-08-20T13:52:11;2.80;;;1.38;;
68921;SDS011;55959;51.244;5.724;2023-08-20T13:54:37;2.47;;;1.23;;
68921;SDS011;55959;51.244;5.724;2023-08-20T13:57:03;1.65;;;1.08;;
68921;SDS011;55959;51.244;5.724;2023-08-20T13:59:29;4.90;;;1.30;;
68921;SDS011;55959;51.244;5.724;2023-08-20T14:01:56;2.67;;;1.15;;
68921;SDS011;55959;51.244;5.724;2023-08-20T14:04:22;2.53;;;1.33;;
68921;SDS011;55959;51.244;5.724;2023-08-20T14:06:48;1.80;;;1.27;;
68921;SDS011;55959;51.244;5.724;2023-08-20T14:09:14;2.35;;;1.35;;
68921;SDS011;55959;51.244;5.724;2023-08-20T14:11:42;2.95;;;1.30;;
68921;SDS011;55959;51.244;5.724;2023-08-20T14:14:08;2.38;;;1.45;;
68921;SDS011;55959;51.244;5.724;2023-08-20T14:16:33;1.95;;;1.20;;
68921;SDS011;55959;51.244;5.724;2023-08-20T14:18:59;2.35;;;1.08;;
68921;SDS011;55959;51.244;5.724;2023-08-20T14:21:25;1.27;;;1.08;;
68921;SDS011;55959;51.244;5.724;2023-08-20T14:23:51;1.77;;;0.90;;
68921;SDS011;55959;51.244;5.724;2023-08-20T14:26:17;2.38;;;1.10;;
68921;SDS011;55959;51.244;5.724;2023-08-20T14:28:43;2.25;;;1.10;;
68921;SDS011;55959;51.244;5.724;2023-08-20T14:31:09;1.15;;;0.95;;
68921;SDS011;55959;51.244;5.724;2023-08-20T14:33:35;1.67;;;1.25;;
68921;SDS011;55959;51.244;5.724;2023-08-20T14:36:01;2.08;;;1.23;;
68921;SDS011;55959;51.244;5.724;2023-08-20T14:38:28;2.35;;;1.30;;
68921;SDS011;55959;51.244;5.724;2023-08-20T14:40:59;2.10;;;1.15;;
68921;SDS011;55959;51.244;5.724;2023-08-20T14:43:26;2.97;;;1.40;;
68921;SDS011;55959;51.244;5.724;2023-08-20T14:45:52;1.92;;;1.10;;
68921;SDS011;55959;51.244;5.724;2023-08-20T14:48:19;1.73;;;1.08;;
68921;SDS011;55959;51.244;5.724;2023-08-20T14:50:45;2.53;;;1.27;;
68921;SDS011;55959;51.244;5.724;2023-08-20T14:53:11;2.85;;;1.30;;
68921;SDS011;55959;51.244;5.724;2023-08-20T14:55:36;4.05;;;2.47;;
68921;SDS011;55959;51.244;5.724;2023-08-20T14:58:02;2.65;;;1.50;;
68921;SDS011;55959;51.244;5.724;2023-08-20T15:00:31;2.10;;;1.40;;
68921;SDS011;55959;51.244;5.724;2023-08-20T15:02:59;2.92;;;2.45;;
68921;SDS011;55959;51.244;5.724;2023-08-20T15:05:26;3.95;;;2.80;;
68921;SDS011;55959;51.244;5.724;2023-08-20T15:07:52;2.78;;;2.13;;
68921;SDS011;55959;51.244;5.724;2023-08-20T15:10:18;2.63;;;1.50;;
68921;SDS011;55959;51.244;5.724;2023-08-20T15:12:47;1.10;;;1.00;;
68921;SDS011;55959;51.244;5.724;2023-08-20T15:15:13;1.70;;;1.00;;
68921;SDS011;55959;51.244;5.724;2023-08-20T15:17:38;2.15;;;1.20;;